Time;durP1;ratioP1;P1;durP2;ratioP2;P2;SDS_P1;SDS_P2;PMS_P1;PMS_P2;Temp;Humidity;BMP_temperature;BMP_pressure;BME280_temperature;BME280_humidity;BME280_pressure;Samples;Min_cycle;Max_cycle;Signal;HPM_P1;HPM_P2
2021/09/05 00:00:20;;;;;;;8.18;6.20;;;17.60;99.90;;;17.27;100.00;101244.72;4168172;28;20049;-67
2021/09/05 00:02:21;;;;;;;9.18;7.18;;;17.50;99.90;;;17.26;100.00;101245.75;4168127;28;20028;-67
2021/09/05 00:04:24;;;;;;;10.95;8.43;;;17.50;99.90;;;17.30;100.00;101248.84;4168243;28;20397;-67
2021/09/05 00:06:25;;;;;;;10.82;9.68;;;17.50;99.90;;;17.27;100.00;101243.91;4168469;28;20022;-67
2021/09/05 00:08:25;;;;;;;11.57;9.90;;;17.50;99.90;;;17.29;100.00;101247.22;4168352;28;20063;-67
2021/09/05 00:10:26;;;;;;;11.10;9.60;;;17.50;99.90;;;17.34;100.00;101242.97;4168284;28;20034;-67
2021/09/05 00:12:27;;;;;;;10.57;9.43;;;17.50;99.90;;;17.38;100.00;101244.25;4168308;28;20037;-67
2021/09/05 00:14:28;;;;;;;12.77;9.73;;;17.50;99.90;;;17.38;100.00;101254.09;4168253;28;20052;-67
2021/09/05 00:16:30;;;;;;;11.65;10.05;;;17.60;99.90;;;17.39;100.00;101251.22;4168050;28;20029;-67
2021/09/05 00:18:32;;;;;;;9.82;8.48;;;17.60;99.90;;;17.43;100.00;101251.69;4167177;28;20032;-67
2021/09/05 00:20:33;;;;;;;9.68;8.68;;;17.60;99.90;;;17.41;100.00;101251.06;4168117;28;20092;-67
2021/09/05 00:22:34;;;;;;;9.32;7.50;;;17.60;99.90;;;17.34;100.00;101245.66;4168834;28;20057;-67
2021/09/05 00:24:35;;;;;;;10.95;8.73;;;17.60;99.90;;;17.41;100.00;101245.72;4171633;28;20029;-67
2021/09/05 00:26:36;;;;;;;10.93;9.82;;;17.50;99.90;;;17.28;100.00;101232.22;4171486;28;20076;-67
2021/09/05 00:28:37;;;;;;;10.73;8.80;;;17.60;99.90;;;17.16;100.00;101210.56;4171472;28;20079;-67
2021/09/05 00:30:38;;;;;;;11.15;10.05;;;17.50;99.90;;;17.39;100.00;101243.22;4171336;28;21345;-67
2021/09/05 00:32:39;;;;;;;11.20;9.93;;;17.60;99.90;;;17.37;100.00;101242.59;4171731;28;20554;-67
2021/09/05 00:34:40;;;;;;;11.43;10.23;;;17.50;99.90;;;17.31;100.00;101239.84;4171441;28;20060;-67
2021/09/05 00:36:41;;;;;;;11.55;9.95;;;17.50;99.90;;;17.31;100.00;101238.03;4170355;28;20065;-67
2021/09/05 00:38:42;;;;;;;9.95;8.95;;;17.50;99.90;;;17.32;100.00;101239.69;4171412;28;20489;-67
2021/09/05 00:40:43;;;;;;;13.07;10.18;;;17.50;99.90;;;17.31;100.00;101230.03;4171440;28;20041;-67
2021/09/05 00:42:43;;;;;;;12.65;10.70;;;17.50;99.90;;;17.19;100.00;101238.69;4171382;28;20017;-67
2021/09/05 00:44:44;;;;;;;13.23;9.82;;;17.50;99.90;;;17.15;100.00;101233.72;4171348;28;20029;-67
2021/09/05 00:46:45;;;;;;;10.48;9.18;;;17.40;99.90;;;17.14;100.00;101233.94;4170948;28;20033;-67
2021/09/05 00:48:46;;;;;;;11.57;10.30;;;17.30;99.90;;;17.12;100.00;101235.94;4171280;28;20056;-67
2021/09/05 00:50:48;;;;;;;10.68;9.32;;;17.40;99.90;;;17.02;100.00;101235.41;4171253;28;20025;-67
2021/09/05 00:52:50;;;;;;;9.77;8.43;;;17.30;99.90;;;17.01;100.00;101234.59;4203262;28;20029;-67
2021/09/05 00:54:51;;;;;;;11.00;9.60;;;17.30;99.90;;;17.02;100.00;101238.09;4170969;28;20029;-67
2021/09/05 00:56:52;;;;;;;10.27;9.13;;;17.30;99.90;;;17.01;100.00;101233.75;4197573;28;20099;-67
2021/09/05 00:58:56;;;;;;;11.15;9.35;;;17.30;99.90;;;17.02;100.00;101241.53;4154583;28;20026;-67
2021/09/05 01:00:58;;;;;;;11.93;9.43;;;17.20;99.90;;;16.95;100.00;101234.50;4154563;28;20441;-67
2021/09/05 01:03:00;;;;;;;9.52;8.48;;;17.20;99.90;;;16.94;100.00;101233.66;4154528;28;20060;-67
2021/09/05 01:05:00;;;;;;;9.32;7.60;;;17.20;99.90;;;16.92;100.00;101235.69;4186509;28;20108;-67
2021/09/05 01:07:03;;;;;;;9.00;8.10;;;17.20;99.90;;;16.89;100.00;101235.22;4154638;28;20017;-67
2021/09/05 01:09:05;;;;;;;10.10;7.70;;;17.10;99.90;;;16.85;100.00;101223.28;4186203;28;20433;-67
2021/09/05 01:11:06;;;;;;;8.32;7.40;;;17.00;99.90;;;16.86;100.00;101235.59;4154342;28;20034;-67
2021/09/05 01:13:08;;;;;;;9.32;7.28;;;17.00;99.90;;;16.82;100.00;101240.47;4154592;28;20096;-67
2021/09/05 01:15:10;;;;;;;8.85;7.05;;;17.00;99.90;;;16.69;100.00;101219.00;4154430;28;20032;-67
2021/09/05 01:17:12;;;;;;;8.60;7.30;;;17.00;99.90;;;16.74;100.00;101227.25;4154131;28;20465;-67
2021/09/05 01:19:16;;;;;;;11.15;8.20;;;16.90;99.90;;;16.70;100.00;101225.13;4186094;28;20021;-67
2021/09/05 01:21:17;;;;;;;8.50;6.85;;;16.90;99.90;;;16.68;100.00;101227.97;4185896;28;20086;-67
2021/09/05 01:23:18;;;;;;;7.13;6.30;;;16.90;99.90;;;16.70;100.00;101231.28;4186102;28;20456;-67
2021/09/05 01:25:19;;;;;;;8.45;6.57;;;16.90;99.90;;;16.65;100.00;101230.19;4154323;28;20030;-67
2021/09/05 01:27:19;;;;;;;8.02;7.20;;;16.80;99.90;;;16.56;100.00;101224.13;4156277;28;20466;-67
2021/09/05 01:29:20;;;;;;;8.45;7.55;;;16.80;99.90;;;16.35;100.00;101206.16;4170670;28;20036;-67
2021/09/05 01:31:23;;;;;;;8.82;7.00;;;16.70;99.90;;;16.39;100.00;101225.28;4202470;28;20139;-67
2021/09/05 01:33:24;;;;;;;7.82;7.03;;;16.70;99.90;;;16.30;100.00;101229.03;4202356;28;20036;-67
2021/09/05 01:35:24;;;;;;;7.78;7.00;;;16.60;99.90;;;16.37;100.00;101236.09;4201399;28;20112;-67
2021/09/05 01:37:25;;;;;;;7.82;7.03;;;16.60;99.90;;;16.31;100.00;101217.34;4202419;28;20119;-67
2021/09/05 01:39:26;;;;;;;8.48;7.07;;;16.60;99.90;;;16.36;100.00;101239.78;4170650;28;20033;-67
2021/09/05 01:41:27;;;;;;;10.55;6.32;;;16.60;99.90;;;16.34;100.00;101236.44;4170468;28;20032;-67
2021/09/05 01:43:28;;;;;;;7.40;6.43;;;16.60;99.90;;;16.37;100.00;101236.09;4170260;28;20064;-67
2021/09/05 01:45:29;;;;;;;7.75;6.43;;;16.60;99.90;;;16.35;100.00;101234.63;4170439;28;20025;-67
2021/09/05 01:47:31;;;;;;;9.20;7.75;;;16.50;99.90;;;16.28;100.00;101241.66;4170105;28;20025;-67
2021/09/05 01:49:32;;;;;;;7.85;6.72;;;16.50;99.90;;;16.17;100.00;101247.44;4202161;28;20508;-67
2021/09/05 01:51:33;;;;;;;8.23;6.60;;;16.50;99.90;;;16.18;100.00;101249.09;4170178;28;20032;-67
2021/09/05 01:53:34;;;;;;;8.52;7.68;;;16.40;99.90;;;16.18;100.00;101238.44;4202391;28;20099;-67
2021/09/05 01:55:35;;;;;;;9.35;7.10;;;16.40;99.90;;;16.24;100.00;101251.88;4170139;28;20416;-67
2021/09/05 01:57:36;;;;;;;7.47;6.15;;;16.40;99.90;;;16.21;100.00;101254.91;4170227;28;20064;-67
2021/09/05 01:59:37;;;;;;;8.02;6.75;;;16.40;99.90;;;16.22;100.00;101247.75;4169910;28;20042;-67
2021/09/05 02:01:38;;;;;;;7.32;6.63;;;16.40;99.90;;;16.16;100.00;101241.28;4201883;28;20028;-67
2021/09/05 02:03:39;;;;;;;6.80;6.20;;;16.40;99.90;;;16.23;100.00;101246.72;4170158;28;20028;-67
2021/09/05 02:05:40;;;;;;;8.93;6.30;;;16.40;99.90;;;16.21;100.00;101251.41;4170068;28;20061;-67
2021/09/05 02:07:40;;;;;;;7.10;6.40;;;16.40;99.90;;;16.21;100.00;101244.25;4169983;28;20045;-67
2021/09/05 02:09:41;;;;;;;7.50;6.70;;;16.40;99.90;;;16.20;100.00;101250.56;4201989;28;20024;-67
2021/09/05 02:11:42;;;;;;;6.47;5.53;;;16.30;99.90;;;16.11;100.00;101254.31;4170065;28;20022;-67
2021/09/05 02:13:43;;;;;;;7.03;6.32;;;16.30;99.90;;;16.04;100.00;101240.88;4201858;28;20021;-67
2021/09/05 02:15:44;;;;;;;5.93;5.32;;;16.30;99.90;;;16.00;100.00;101233.47;4169642;28;20120;-67
2021/09/05 02:17:45;;;;;;;7.25;6.47;;;16.20;99.90;;;15.98;100.00;101241.59;4170108;28;20026;-67
2021/09/05 02:19:46;;;;;;;8.93;5.93;;;16.30;99.90;;;15.98;100.00;101240.78;4169805;28;20047;-67
2021/09/05 02:21:47;;;;;;;8.27;7.15;;;16.20;99.90;;;15.96;100.00;101242.78;4169828;28;20113;-67
2021/09/05 02:23:48;;;;;;;7.78;6.97;;;16.20;99.90;;;15.68;100.00;101196.47;4201512;28;20056;-67
2021/09/05 02:25:49;;;;;;;9.88;6.88;;;16.20;99.90;;;15.92;100.00;101231.66;4184991;28;20029;-67
2021/09/05 02:27:49;;;;;;;9.25;6.30;;;16.10;99.90;;;15.93;100.00;101232.50;4168535;28;20022;-67
2021/09/05 02:29:50;;;;;;;6.38;5.43;;;16.10;99.90;;;15.96;100.00;101243.63;4168560;28;20036;-67
2021/09/05 02:31:52;;;;;;;6.13;5.53;;;16.20;99.90;;;15.95;100.00;101241.13;4169450;28;20436;-67
2021/09/05 02:33:53;;;;;;;7.05;6.20;;;16.10;99.90;;;15.94;100.00;101242.97;4169659;28;20037;-67
2021/09/05 02:35:53;;;;;;;8.15;6.43;;;16.10;99.90;;;15.92;100.00;101233.50;4201556;28;20640;-67
2021/09/05 02:37:55;;;;;;;6.88;6.22;;;16.10;99.90;;;15.89;100.00;101231.19;4168373;28;20120;-67
2021/09/05 02:39:56;;;;;;;9.05;6.05;;;16.10;99.90;;;15.90;100.00;101239.00;4168174;28;20495;-67
2021/09/05 02:41:56;;;;;;;7.15;5.68;;;16.10;99.90;;;15.90;100.00;101238.19;4169345;28;20033;-67
2021/09/05 02:43:57;;;;;;;7.32;6.13;;;16.10;99.90;;;15.92;100.00;101241.47;4184714;28;20071;-67
2021/09/05 02:45:58;;;;;;;7.22;6.20;;;16.10;99.90;;;15.90;100.00;101238.19;4169110;28;20488;-67
2021/09/05 02:47:59;;;;;;;10.05;7.30;;;16.10;99.90;;;15.88;100.00;101245.53;4201176;28;20035;-67
2021/09/05 02:50:00;;;;;;;7.97;6.47;;;16.10;99.90;;;15.90;100.00;101246.16;4169233;28;20494;-67
2021/09/05 02:52:01;;;;;;;8.30;6.25;;;16.10;99.90;;;15.93;100.00;101243.97;4169371;28;20034;-67
2021/09/05 02:54:02;;;;;;;7.35;6.00;;;16.10;99.90;;;15.96;100.00;101238.31;4169364;28;20065;-67
2021/09/05 02:56:03;;;;;;;6.97;6.20;;;16.10;99.90;;;15.97;100.00;101245.28;4201057;28;20024;-67
2021/09/05 02:58:04;;;;;;;9.32;6.85;;;16.10;99.90;;;15.95;100.00;101243.78;4184364;28;20021;-67
2021/09/05 03:00:06;;;;;;;9.00;6.32;;;16.10;99.90;;;15.89;100.00;101241.84;4168975;28;20592;-67
2021/09/05 03:02:07;;;;;;;7.38;6.13;;;16.10;99.90;;;15.89;100.00;101247.16;4200788;28;20039;-67
2021/09/05 03:04:08;;;;;;;7.38;6.00;;;16.10;99.90;;;15.84;100.00;101242.38;4169199;28;20481;-67
2021/09/05 03:06:09;;;;;;;8.40;7.50;;;16.10;99.90;;;15.90;100.00;101247.00;4200950;28;20465;-67
2021/09/05 03:08:10;;;;;;;7.45;6.68;;;16.10;99.90;;;15.91;100.00;101247.84;4169173;28;20049;-67
2021/09/05 03:10:11;;;;;;;7.13;5.70;;;16.10;99.90;;;15.86;100.00;101234.25;4169132;28;20574;-67
2021/09/05 03:12:12;;;;;;;8.13;6.38;;;16.10;99.90;;;15.86;100.00;101242.22;4169102;28;20051;-67
2021/09/05 03:14:14;;;;;;;7.25;6.55;;;16.10;99.90;;;15.79;100.00;101247.44;4169123;28;20112;-67
2021/09/05 03:16:15;;;;;;;6.90;5.93;;;16.00;99.90;;;15.69;100.00;101245.97;4168860;28;20079;-67
2021/09/05 03:18:16;;;;;;;6.88;6.18;;;16.00;99.90;;;15.67;100.00;101237.38;4169030;28;20555;-67
2021/09/05 03:20:16;;;;;;;8.13;6.53;;;15.90;99.90;;;15.68;100.00;101234.50;4168913;28;20029;-67
2021/09/05 03:22:18;;;;;;;8.68;5.95;;;15.90;99.90;;;15.73;100.00;101236.66;4200558;28;20058;-67
2021/09/05 03:24:19;;;;;;;7.28;6.18;;;15.90;99.90;;;15.74;100.00;101233.81;4168888;28;20026;-67
2021/09/05 03:26:20;;;;;;;6.80;6.10;;;15.90;99.90;;;15.75;100.00;101240.78;4200760;28;20032;-67
2021/09/05 03:28:21;;;;;;;6.85;6.18;;;15.90;99.90;;;15.71;100.00;101241.34;4168745;28;20053;-67
2021/09/05 03:30:22;;;;;;;7.13;5.80;;;15.80;99.90;;;15.66;100.00;101235.69;4168705;28;20507;-67
2021/09/05 03:32:23;;;;;;;7.63;6.28;;;15.90;99.90;;;15.57;100.00;101234.94;4168680;28;20025;-67
2021/09/05 03:34:24;;;;;;;6.90;5.88;;;15.80;99.90;;;15.58;100.00;101239.25;4200731;28;20404;-67
2021/09/05 03:36:25;;;;;;;6.55;5.47;;;15.80;99.90;;;15.44;100.00;101237.31;4167703;28;20104;-67
2021/09/05 03:38:25;;;;;;;8.30;6.13;;;15.80;99.90;;;15.41;100.00;101238.47;4200662;28;20485;-67
2021/09/05 03:40:26;;;;;;;6.30;5.60;;;15.70;99.90;;;15.42;100.00;101237.50;4183867;28;20505;-67
2021/09/05 03:42:27;;;;;;;7.05;6.20;;;15.70;99.90;;;15.46;100.00;101241.47;4168750;28;20494;-67
2021/09/05 03:44:28;;;;;;;6.28;5.68;;;15.70;99.90;;;15.48;100.00;101242.13;4168684;28;20535;-67
2021/09/05 03:46:29;;;;;;;6.15;5.53;;;15.60;99.90;;;15.43;100.00;101230.34;4168415;28;20036;-67
2021/09/05 03:48:30;;;;;;;6.95;5.50;;;15.60;99.90;;;15.36;100.00;101232.88;4200635;28;20123;-67
2021/09/05 03:50:31;;;;;;;6.10;5.50;;;15.60;99.90;;;15.26;100.00;101224.28;4200632;28;20134;-67
2021/09/05 03:52:33;;;;;;;5.95;5.35;;;15.50;99.90;;;15.21;100.00;101213.34;4167476;28;20053;-67
2021/09/05 03:54:34;;;;;;;6.85;5.30;;;15.50;99.90;;;15.31;100.00;101229.91;4168797;28;20030;-67
2021/09/05 03:56:35;;;;;;;7.03;5.78;;;15.50;99.90;;;15.31;100.00;101223.75;4168450;28;20022;-67
2021/09/05 03:58:36;;;;;;;6.57;5.43;;;15.50;99.90;;;15.28;100.00;101227.59;4168190;28;20041;-67
2021/09/05 04:00:38;;;;;;;4.88;4.32;;;15.50;99.90;;;15.23;100.00;101214.00;4168052;28;20073;-67
2021/09/05 04:02:39;;;;;;;6.63;5.45;;;15.50;99.90;;;15.22;100.00;101223.00;4183630;28;20032;-67
2021/09/05 04:04:40;;;;;;;6.38;5.65;;;15.50;99.90;;;15.18;100.00;101226.97;4168357;28;20017;-67
2021/09/05 04:06:44;;;;;;;6.43;5.05;;;15.40;99.90;;;15.02;100.00;101213.78;4168570;28;20032;-67
2021/09/05 04:08:48;;;;;;;5.47;4.95;;;15.40;99.90;;;14.88;100.00;101204.72;4199953;28;20503;-67
2021/09/05 04:10:49;;;;;;;5.32;4.68;;;15.30;99.90;;;14.94;100.00;101216.47;4168599;28;20041;-67
2021/09/05 04:12:50;;;;;;;8.10;6.07;;;15.30;99.90;;;15.03;100.00;101220.75;4168652;28;20037;-67
2021/09/05 04:14:51;;;;;;;6.18;5.53;;;15.30;99.90;;;15.06;100.00;101228.38;4200341;28;20528;-67
2021/09/05 04:16:52;;;;;;;9.75;5.97;;;15.30;99.90;;;15.05;100.00;101228.56;4167104;28;20033;-67
2021/09/05 04:18:53;;;;;;;8.63;5.45;;;15.30;99.90;;;15.06;100.00;101233.69;4200288;28;20024;-67
2021/09/05 04:20:53;;;;;;;5.93;5.40;;;15.30;99.90;;;15.04;100.00;101229.56;4168216;28;20051;-67
2021/09/05 04:22:55;;;;;;;8.57;5.65;;;15.20;99.90;;;15.02;100.00;101237.72;4200343;28;20025;-67
2021/09/05 04:24:56;;;;;;;5.47;4.95;;;15.20;99.90;;;14.96;100.00;101235.75;4168579;28;20072;-67
2021/09/05 04:26:57;;;;;;;6.38;5.43;;;15.20;99.90;;;14.92;100.00;101245.88;4168424;28;20026;-67
2021/09/05 04:28:57;;;;;;;7.28;5.80;;;15.20;99.90;;;14.82;100.00;101228.47;4183400;28;20048;-67
2021/09/05 04:30:58;;;;;;;8.02;5.70;;;15.20;99.90;;;14.79;100.00;101242.94;4199932;28;20507;-67
2021/09/05 04:32:59;;;;;;;7.45;5.82;;;15.10;99.90;;;14.77;100.00;101239.63;4168332;28;20061;-67
2021/09/05 04:35:00;;;;;;;6.85;5.75;;;15.10;99.90;;;14.87;100.00;101240.22;4168372;28;20401;-66
2021/09/05 04:37:02;;;;;;;6.32;5.68;;;15.10;99.90;;;14.94;100.00;101246.53;4168350;28;20037;-67
2021/09/05 04:39:03;;;;;;;6.40;5.80;;;15.10;99.90;;;14.98;100.00;101251.50;4168290;28;20038;-66
2021/09/05 04:41:04;;;;;;;7.68;6.40;;;15.20;99.90;;;14.96;100.00;101249.03;4200100;28;20029;-67
2021/09/05 04:43:05;;;;;;;7.10;5.78;;;15.20;99.90;;;14.92;100.00;101248.53;4168361;28;20089;-67
2021/09/05 04:45:06;;;;;;;7.43;6.10;;;15.20;99.90;;;14.86;100.00;101251.88;4168198;28;20064;-67
2021/09/05 04:47:07;;;;;;;6.88;6.00;;;15.20;99.90;;;14.89;100.00;101263.97;4199975;28;20025;-67
2021/09/05 04:49:10;;;;;;;7.30;6.57;;;15.20;99.90;;;14.85;100.00;101262.66;4168130;28;20026;-67
2021/09/05 04:51:11;;;;;;;9.13;6.20;;;15.20;99.90;;;14.83;100.00;101262.84;4168106;28;20116;-67
2021/09/05 04:53:12;;;;;;;8.48;6.35;;;15.20;99.90;;;14.82;100.00;101266.47;4199985;28;20025;-67
2021/09/05 04:55:13;;;;;;;6.95;6.18;;;15.20;99.90;;;14.90;100.00;101268.31;4183293;28;20025;-67
2021/09/05 04:57:14;;;;;;;7.93;6.55;;;15.20;99.90;;;14.83;100.00;101256.69;4168151;28;20108;-67
2021/09/05 04:59:14;;;;;;;8.32;6.50;;;15.20;99.90;;;14.91;100.00;101272.59;4167853;28;20045;-67
2021/09/05 05:01:15;;;;;;;8.77;6.28;;;15.20;99.90;;;14.92;100.00;101268.94;4167514;28;20029;-67
2021/09/05 05:03:17;;;;;;;7.43;6.63;;;15.20;99.90;;;14.96;100.00;101279.06;4200000;28;20028;-67
2021/09/05 05:05:18;;;;;;;6.70;5.97;;;15.20;99.90;;;15.01;100.00;101275.91;4199956;28;20052;-67
2021/09/05 05:07:19;;;;;;;9.18;5.47;;;15.20;99.90;;;15.02;100.00;101274.91;4168136;28;20393;-67
2021/09/05 05:09:20;;;;;;;6.82;5.85;;;15.20;99.90;;;14.98;100.00;101278.91;4167991;28;20084;-67
2021/09/05 05:11:21;;;;;;;6.40;5.80;;;15.20;99.90;;;14.99;100.00;101285.88;4171035;28;20453;-67
2021/09/05 05:13:22;;;;;;;7.25;6.55;;;15.10;99.90;;;15.01;100.00;101283.03;4171027;28;20448;-67
2021/09/05 05:15:23;;;;;;;6.40;5.78;;;15.10;99.90;;;14.94;100.00;101282.88;4170820;28;20025;-67
2021/09/05 05:17:24;;;;;;;8.77;6.80;;;15.20;99.90;;;14.96;100.00;101288.88;4170772;28;20029;-67
2021/09/05 05:19:24;;;;;;;6.22;5.60;;;15.20;99.90;;;15.00;100.00;101286.69;4170830;28;20048;-67
2021/09/05 05:21:27;;;;;;;10.27;6.63;;;15.20;99.90;;;14.99;100.00;101290.34;4170833;28;20064;-67
2021/09/05 05:23:29;;;;;;;6.88;6.18;;;15.20;99.90;;;14.96;100.00;101294.19;4170819;28;20086;-67
2021/09/05 05:25:30;;;;;;;7.93;5.53;;;15.20;99.90;;;15.06;100.00;101302.78;4202472;28;20495;-67
2021/09/05 05:27:31;;;;;;;10.20;5.65;;;15.20;99.90;;;15.07;100.00;101298.28;4170749;28;20063;-67
2021/09/05 05:29:31;;;;;;;6.55;5.25;;;15.20;99.90;;;15.05;100.00;101300.31;4170793;28;20060;-67
2021/09/05 05:31:32;;;;;;;6.97;5.90;;;15.20;99.90;;;15.01;100.00;101305.13;4185680;28;20025;-67
2021/09/05 05:33:34;;;;;;;6.50;5.78;;;15.20;99.90;;;15.05;100.00;101306.44;4170556;28;20533;-67
2021/09/05 05:35:35;;;;;;;6.65;6.05;;;15.20;99.90;;;15.05;100.00;101308.28;4170658;28;20024;-67
2021/09/05 05:37:36;;;;;;;7.53;6.72;;;15.20;99.90;;;15.07;100.00;101308.91;4170829;28;20033;-67
2021/09/05 05:39:37;;;;;;;6.95;6.18;;;15.20;99.90;;;15.06;100.00;101310.75;4170509;28;20030;-67
2021/09/05 05:41:38;;;;;;;6.95;6.25;;;15.30;99.90;;;15.09;100.00;101310.41;4170710;28;20029;-67
2021/09/05 05:43:39;;;;;;;5.72;5.10;;;15.30;99.90;;;15.09;100.00;101313.06;4170503;28;20021;-66
2021/09/05 05:45:41;;;;;;;7.55;6.22;;;15.30;99.90;;;15.11;100.00;101316.41;4170224;28;20017;-67
2021/09/05 05:47:42;;;;;;;7.78;6.60;;;15.40;99.90;;;15.13;100.00;101317.03;4170466;28;20036;-67
2021/09/05 05:49:46;;;;;;;8.00;6.45;;;15.40;99.90;;;15.17;100.00;101314.88;4170381;28;20021;-67
2021/09/05 05:51:47;;;;;;;8.70;7.38;;;15.40;99.90;;;15.20;100.00;101318.00;4170229;28;20033;-67
2021/09/05 05:53:48;;;;;;;6.85;6.00;;;15.40;99.90;;;15.22;100.00;101318.66;4170387;28;20036;-67
2021/09/05 05:55:49;;;;;;;6.90;5.82;;;15.40;99.90;;;15.21;100.00;101309.03;4170245;28;20037;-67
2021/09/05 05:57:50;;;;;;;7.38;5.93;;;15.40;99.90;;;15.22;100.00;101320.50;4169104;28;20033;-66
2021/09/05 05:59:52;;;;;;;6.18;5.47;;;15.50;99.90;;;15.25;100.00;101323.63;4169936;28;20054;-67
2021/09/05 06:01:53;;;;;;;7.07;5.85;;;15.50;99.90;;;15.26;100.00;101327.13;4170032;28;20516;-67
2021/09/05 06:03:54;;;;;;;7.30;5.50;;;15.50;99.90;;;15.28;100.00;101325.13;4170156;28;20036;-67
2021/09/05 06:05:55;;;;;;;6.18;5.32;;;15.50;99.90;;;15.27;100.00;101329.59;4170163;28;20029;-67
2021/09/05 06:07:57;;;;;;;6.80;5.00;;;15.50;99.90;;;15.28;100.00;101328.63;4169923;28;20171;-67
2021/09/05 06:09:58;;;;;;;5.85;4.97;;;15.50;99.90;;;15.31;100.00;101338.06;4169875;28;20080;-67
2021/09/05 06:11:58;;;;;;;7.25;5.38;;;15.50;99.90;;;15.25;100.00;101328.13;4170049;28;20056;-67
2021/09/05 06:13:59;;;;;;;5.78;4.68;;;15.50;99.90;;;15.30;100.00;101339.06;4169916;28;20032;-67
2021/09/05 06:16:01;;;;;;;6.40;5.78;;;15.50;99.90;;;15.28;100.00;101343.72;4169535;28;20573;-67
2021/09/05 06:18:02;;;;;;;9.80;5.22;;;15.50;99.90;;;15.23;100.00;101346.09;4169854;28;20029;-67
2021/09/05 06:20:07;;;;;;;7.15;5.38;;;15.60;99.90;;;15.21;100.00;101340.91;4169713;28;20124;-67
2021/09/05 06:22:08;;;;;;;7.70;5.43;;;15.60;99.90;;;15.23;100.00;101346.88;4169591;28;20033;-67
2021/09/05 06:24:08;;;;;;;5.53;5.00;;;15.60;99.90;;;15.29;100.00;101351.50;4169267;28;20079;-67
2021/09/05 06:26:10;;;;;;;6.63;4.60;;;15.60;99.90;;;15.34;100.00;101356.34;4197870;28;20017;-68
2021/09/05 06:28:11;;;;;;;5.32;4.82;;;15.60;99.90;;;15.37;100.00;101354.16;4170730;28;20030;-67
2021/09/05 06:30:12;;;;;;;5.10;4.60;;;15.70;99.90;;;15.40;100.00;101360.97;4170669;28;20552;-68
2021/09/05 06:32:16;;;;;;;4.93;4.25;;;15.70;99.90;;;15.44;100.00;101360.44;4170189;28;20065;-68
2021/09/05 06:34:17;;;;;;;5.30;4.30;;;15.70;99.90;;;15.39;100.00;101367.28;4170440;28;20034;-67
2021/09/05 06:36:18;;;;;;;6.40;5.10;;;15.70;99.90;;;15.36;100.00;101368.44;4170531;28;20413;-67
2021/09/05 06:38:19;;;;;;;5.03;4.45;;;15.70;99.90;;;15.37;100.00;101372.78;4171187;28;20064;-67
2021/09/05 06:40:21;;;;;;;6.53;5.80;;;15.70;99.90;;;15.38;100.00;101377.06;4170260;28;20025;-67
2021/09/05 06:42:22;;;;;;;5.88;5.28;;;15.80;99.90;;;15.39;100.00;101378.75;4185733;28;20048;-67
2021/09/05 06:44:23;;;;;;;6.45;5.43;;;15.80;99.90;;;15.41;100.00;101382.03;4170216;28;20045;-67
2021/09/05 06:46:25;;;;;;;6.05;4.97;;;15.80;99.90;;;15.52;100.00;101388.03;4201581;28;20096;-68
2021/09/05 06:48:25;;;;;;;5.38;4.63;;;15.90;99.90;;;15.61;100.00;101392.31;4170094;28;20052;-68
2021/09/05 06:50:26;;;;;;;4.95;3.92;;;15.90;99.90;;;15.67;100.00;101396.94;4170422;28;20037;-68
2021/09/05 06:52:27;;;;;;;4.70;4.20;;;16.00;99.90;;;15.68;100.00;101395.97;4170235;28;20029;-68
2021/09/05 06:54:29;;;;;;;4.82;4.25;;;16.00;99.90;;;15.69;100.00;101394.94;4170354;28;20032;-68
2021/09/05 06:56:30;;;;;;;5.07;4.57;;;16.10;99.90;;;15.75;100.00;101394.25;4199379;28;20032;-68
2021/09/05 06:58:31;;;;;;;5.30;4.80;;;16.10;99.90;;;15.82;100.00;101390.72;4153962;28;20053;-68
2021/09/05 07:00:32;;;;;;;5.20;4.70;;;16.10;99.90;;;15.84;100.00;101398.53;4153424;28;20050;-68
2021/09/05 07:02:33;;;;;;;6.25;5.53;;;16.20;99.90;;;15.92;100.00;101404.63;4153822;28;20489;-68
2021/09/05 07:04:34;;;;;;;7.40;5.13;;;16.30;99.90;;;15.97;100.00;101407.63;4153603;28;20034;-68
2021/09/05 07:06:35;;;;;;;5.60;4.50;;;16.30;99.90;;;15.97;100.00;101404.13;4153865;28;20121;-68
2021/09/05 07:08:36;;;;;;;5.10;4.28;;;16.40;99.90;;;16.01;100.00;101405.41;4165424;28;20080;-68
2021/09/05 07:10:37;;;;;;;5.60;4.85;;;16.40;99.90;;;16.05;100.00;101404.06;4164434;28;20045;-67
2021/09/05 07:12:38;;;;;;;6.72;5.45;;;16.50;99.90;;;16.04;100.00;101408.53;4170010;28;20481;-68
2021/09/05 07:14:39;;;;;;;5.35;4.85;;;16.50;99.90;;;16.10;100.00;101409.69;4169081;28;20033;-68
2021/09/05 07:16:41;;;;;;;4.78;4.25;;;16.50;99.90;;;16.17;100.00;101418.63;4170154;28;20444;-67
2021/09/05 07:18:42;;;;;;;5.45;4.95;;;16.60;99.90;;;16.23;100.00;101414.44;4170050;28;20096;-68
2021/09/05 07:20:43;;;;;;;5.88;4.47;;;16.60;99.90;;;16.28;100.00;101417.38;4162660;28;20459;-67
2021/09/05 07:22:44;;;;;;;4.65;4.03;;;16.70;99.90;;;16.33;100.00;101415.88;4153278;28;20395;-67
2021/09/05 07:24:45;;;;;;;5.35;4.60;;;16.70;99.90;;;16.40;100.00;101419.47;4153103;28;20386;-67
2021/09/05 07:26:46;;;;;;;4.38;3.90;;;16.80;99.90;;;16.42;100.00;101416.63;4153433;28;20113;-68
2021/09/05 07:28:47;;;;;;;4.38;3.97;;;16.90;99.90;;;16.51;100.00;101421.75;4167141;28;20060;-67
2021/09/05 07:30:48;;;;;;;5.70;4.60;;;16.90;99.90;;;16.60;100.00;101422.53;4168742;28;20503;-68
2021/09/05 07:32:49;;;;;;;6.40;5.05;;;17.00;99.90;;;16.31;100.00;101361.94;4168879;28;20113;-68
2021/09/05 07:34:50;;;;;;;6.10;5.50;;;17.10;99.90;;;16.76;100.00;101424.22;4169005;28;20065;-68
2021/09/05 07:36:51;;;;;;;7.22;6.45;;;17.20;99.90;;;16.82;100.00;101432.31;4169239;28;20370;-68
2021/09/05 07:38:52;;;;;;;8.40;7.47;;;17.30;99.90;;;16.89;100.00;101433.28;4169357;28;20030;-68
2021/09/05 07:40:53;;;;;;;7.95;7.15;;;17.30;99.90;;;16.98;100.00;101426.03;4168413;28;20029;-68
2021/09/05 07:42:54;;;;;;;7.25;6.53;;;17.40;99.90;;;17.05;100.00;101421.63;4169257;28;20100;-68
2021/09/05 07:44:58;;;;;;;8.15;7.35;;;17.50;99.90;;;17.22;100.00;101436.44;4168617;28;20037;-68
2021/09/05 07:46:59;;;;;;;6.68;5.85;;;17.60;99.90;;;17.29;100.00;101439.22;4169060;28;20389;-68
2021/09/05 07:49:00;;;;;;;7.30;5.60;;;17.70;99.90;;;17.38;100.00;101427.47;4169015;28;20036;-68
2021/09/05 07:51:02;;;;;;;8.20;6.70;;;17.80;99.90;;;17.59;100.00;101443.59;4168633;28;20025;-69
2021/09/05 07:53:03;;;;;;;8.13;6.38;;;17.90;99.90;;;17.71;100.00;101438.63;4169106;28;20037;-68
2021/09/05 07:55:04;;;;;;;9.63;7.47;;;18.00;99.90;;;17.79;100.00;101428.66;4169238;28;20484;-68
2021/09/05 07:57:05;;;;;;;8.52;6.65;;;18.20;99.90;;;17.96;100.00;101437.28;4168833;28;20485;-67
2021/09/05 07:59:07;;;;;;;7.55;6.70;;;18.30;99.90;;;18.13;100.00;101428.84;4167640;28;20049;-67
2021/09/05 08:01:08;;;;;;;7.80;6.50;;;18.40;99.90;;;18.20;100.00;101434.28;4167090;28;20123;-68
2021/09/05 08:03:09;;;;;;;7.07;6.28;;;18.60;99.90;;;18.26;100.00;101433.50;4169147;28;20030;-67
2021/09/05 08:05:11;;;;;;;7.30;5.88;;;18.60;99.90;;;18.36;100.00;101435.88;4168909;28;20025;-67
2021/09/05 08:07:12;;;;;;;6.95;5.97;;;18.70;99.90;;;18.44;100.00;101435.75;4169037;28;20025;-67
2021/09/05 08:09:13;;;;;;;6.93;4.88;;;18.80;99.90;;;18.44;100.00;101444.59;4168881;28;20033;-67
2021/09/05 08:11:14;;;;;;;5.90;5.35;;;18.90;99.90;;;18.51;100.00;101437.53;4167834;28;20026;-67
2021/09/05 08:13:15;;;;;;;6.13;5.53;;;18.90;99.90;;;18.53;100.00;101439.97;4169050;28;20029;-67
2021/09/05 08:15:16;;;;;;;5.57;5.00;;;19.00;99.90;;;18.54;100.00;101436.31;4168849;28;20036;-67
2021/09/05 08:17:17;;;;;;;7.43;6.53;;;19.00;99.90;;;18.67;100.00;101437.25;4169176;28;20557;-67